Time;durP1;ratioP1;P1;durP2;ratioP2;P2;SDS_P1;SDS_P2;PMS_P1;PMS_P2;Temp;Humidity;BMP_temperature;BMP_pressure;BME280_temperature;BME280_humidity;BME280_pressure;Samples;Min_cycle;Max_cycle;Signal;HPM_P1;HPM_P2
2023/02/05 00:00:44;;;;;;;9.50;5.28;;;3.30;99.90;;;;;;5126029;28;20435;-83
2023/02/05 00:03:14;;;;;;;9.30;5.50;;;3.30;99.90;;;;;;5111242;28;20046;-83
2023/02/05 00:05:41;;;;;;;8.30;4.88;;;3.30;99.90;;;;;;5094360;28;20040;-83
2023/02/05 00:08:08;;;;;;;8.32;5.40;;;3.20;99.90;;;;;;5127223;28;20040;-83
2023/02/05 00:10:34;;;;;;;9.85;5.57;;;3.30;99.90;;;;;;5127457;28;20047;-83
2023/02/05 00:13:01;;;;;;;9.32;5.07;;;3.20;99.90;;;;;;5127137;28;20089;-83
2023/02/05 00:15:28;;;;;;;9.77;5.60;;;3.30;99.90;;;;;;5128000;28;20040;-83
2023/02/05 00:17:54;;;;;;;8.15;5.18;;;3.20;99.90;;;;;;5127375;28;20102;-83
2023/02/05 00:20:21;;;;;;;9.82;5.68;;;3.20;99.90;;;;;;5109762;28;20143;-83
2023/02/05 00:22:48;;;;;;;10.02;5.63;;;3.20;99.90;;;;;;5127450;28;20496;-83
2023/02/05 00:25:16;;;;;;;9.15;4.75;;;3.10;99.90;;;;;;5093704;28;20664;-83
2023/02/05 00:27:43;;;;;;;10.02;5.28;;;3.20;99.90;;;;;;5127208;28;20044;-83
2023/02/05 00:30:10;;;;;;;8.43;5.30;;;3.20;99.90;;;;;;5127241;28;20097;-83
2023/02/05 00:32:37;;;;;;;9.57;5.65;;;3.10;99.90;;;;;;5127246;28;20559;-83
2023/02/05 00:35:04;;;;;;;10.13;5.70;;;3.20;99.90;;;;;;5093504;28;20123;-83
2023/02/05 00:37:30;;;;;;;8.52;5.05;;;3.20;99.90;;;;;;5110389;28;20036;-83
2023/02/05 00:39:57;;;;;;;8.85;5.45;;;3.60;99.90;;;;;;5127350;28;20043;-83
2023/02/05 00:42:24;;;;;;;9.63;4.85;;;3.50;99.90;;;;;;5126175;28;20046;-83
2023/02/05 00:44:50;;;;;;;9.45;5.30;;;3.30;99.90;;;;;;5126924;28;20488;-82
2023/02/05 00:47:17;;;;;;;8.60;5.07;;;3.30;99.90;;;;;;5109911;28;20036;-83
2023/02/05 00:49:44;;;;;;;10.30;5.50;;;3.50;99.90;;;;;;5109894;28;20058;-83
2023/02/05 00:52:10;;;;;;;9.05;5.38;;;3.30;99.90;;;;;;5109110;28;20040;-83
2023/02/05 00:54:37;;;;;;;9.95;5.28;;;3.30;99.90;;;;;;5109139;28;20452;-83
2023/02/05 00:57:04;;;;;;;10.15;5.47;;;3.40;99.90;;;;;;5109776;28;20500;-83
2023/02/05 00:59:31;;;;;;;10.43;5.32;;;3.30;99.90;;;;;;5109340;28;20040;-82
2023/02/05 01:01:57;;;;;;;8.88;5.35;;;3.40;99.90;;;;;;5109928;28;20044;-83
2023/02/05 01:04:24;;;;;;;9.60;5.53;;;3.40;99.90;;;;;;5109010;28;20090;-83
2023/02/05 01:06:51;;;;;;;10.18;5.78;;;3.30;99.90;;;;;;5109611;28;20039;-83
2023/02/05 01:09:17;;;;;;;9.73;5.28;;;3.30;99.90;;;;;;5125930;28;20036;-83
2023/02/05 01:11:44;;;;;;;10.02;5.80;;;3.80;99.90;;;;;;5109374;28;20044;-84
2023/02/05 01:14:11;;;;;;;9.63;5.30;;;3.30;99.90;;;;;;5125807;28;20051;-83
2023/02/05 01:16:37;;;;;;;10.20;5.60;;;3.30;99.90;;;;;;5109474;28;20051;-83
2023/02/05 01:19:04;;;;;;;10.43;5.47;;;3.40;99.90;;;;;;5126194;28;20138;-83
2023/02/05 01:21:31;;;;;;;9.85;5.70;;;3.40;99.90;;;;;;5108700;28;20064;-83
2023/02/05 01:24:00;;;;;;;9.30;5.60;;;3.40;99.90;;;;;;5108817;28;20044;-83
2023/02/05 01:26:27;;;;;;;7.63;4.88;;;3.40;99.90;;;;;;5109537;28;20048;-83
2023/02/05 01:28:53;;;;;;;8.57;5.30;;;3.40;99.90;;;;;;5109198;28;20032;-83
2023/02/05 01:31:21;;;;;;;9.95;5.82;;;3.40;99.90;;;;;;5108668;28;20036;-83
2023/02/05 01:33:47;;;;;;;10.20;5.15;;;4.00;99.90;;;;;;5109083;28;20411;-83
2023/02/05 01:36:14;;;;;;;9.82;5.63;;;3.40;99.90;;;;;;5125682;28;20048;-83
2023/02/05 01:38:41;;;;;;;9.05;5.93;;;3.50;99.90;;;;;;5109089;28;20123;-82
2023/02/05 01:41:08;;;;;;;10.35;5.88;;;3.40;99.90;;;;;;5125721;28;20094;-83
2023/02/05 01:43:35;;;;;;;9.68;5.28;;;3.80;99.90;;;;;;5108038;28;20069;-83
2023/02/05 01:46:24;;;;;;;11.25;5.75;;;3.60;99.90;;;;;;5125569;28;20039;-83
2023/02/05 01:48:55;;;;;;;13.45;6.28;;;3.50;99.90;;;;;;5109100;28;20404;-83
2023/02/05 01:51:23;;;;;;;8.90;5.60;;;3.50;99.90;;;;;;5108464;28;20510;-83
2023/02/05 01:53:50;;;;;;;9.95;5.82;;;3.40;99.90;;;;;;5108900;28;20036;-82
2023/02/05 01:56:29;;;;;;;12.80;6.00;;;3.50;99.90;;;;;;5108694;28;20563;-84
2023/02/05 01:59:14;;;;;;;14.63;6.13;;;3.50;99.90;;;;;;5108675;28;20456;-83
2023/02/05 02:01:42;;;;;;;9.77;5.50;;;3.40;99.90;;;;;;5125582;28;20044;-82
2023/02/05 02:04:11;;;;;;;10.75;5.97;;;3.60;99.90;;;;;;5108414;28;20036;-84
2023/02/05 02:06:38;;;;;;;11.13;6.30;;;3.40;99.90;;;;;;5124048;28;20396;-83
2023/02/05 02:09:05;;;;;;;11.20;6.60;;;3.50;99.90;;;;;;5108764;28;20040;-83
2023/02/05 02:11:36;;;;;;;12.13;6.45;;;3.50;99.90;;;;;;5125238;28;20051;-83
2023/02/05 02:14:05;;;;;;;14.10;6.78;;;3.40;99.90;;;;;;5108507;28;20040;-83
2023/02/05 02:16:34;;;;;;;14.73;6.97;;;3.50;99.90;;;;;;5125510;28;20046;-83
2023/02/05 02:19:05;;;;;;;10.82;6.65;;;3.50;99.90;;;;;;5108687;28;20411;-83
2023/02/05 02:21:48;;;;;;;11.90;6.65;;;3.50;99.90;;;;;;5108277;28;20139;-83
2023/02/05 02:24:48;;;;;;;14.15;7.50;;;3.50;99.90;;;;;;5125552;28;20048;-83
2023/02/05 02:27:14;;;;;;;14.43;6.43;;;3.50;99.90;;;;;;5125321;28;20044;-83
2023/02/05 02:29:52;;;;;;;12.88;7.75;;;3.40;99.90;;;;;;5125446;28;20381;-83
2023/02/05 02:32:57;;;;;;;14.32;7.47;;;3.50;99.90;;;;;;5125538;28;20039;-83
2023/02/05 02:35:41;;;;;;;13.48;7.10;;;3.40;99.90;;;;;;5087162;28;20053;-83
2023/02/05 02:38:16;;;;;;;12.32;6.88;;;3.40;99.90;;;;;;5105045;28;20052;-83
2023/02/05 02:40:49;;;;;;;13.85;7.88;;;3.40;99.90;;;;;;5108475;28;20040;-83
2023/02/05 02:43:23;;;;;;;17.33;7.90;;;3.40;99.90;;;;;;5108365;28;20086;-83
2023/02/05 02:45:57;;;;;;;12.77;7.88;;;3.40;99.90;;;;;;5125250;28;20354;-83
2023/02/05 02:48:27;;;;;;;12.23;7.28;;;3.50;99.90;;;;;;5124596;28;20496;-83
2023/02/05 02:50:55;;;;;;;16.52;7.88;;;3.40;99.90;;;;;;5108564;28;20089;-83
2023/02/05 02:53:27;;;;;;;16.30;7.78;;;3.40;99.90;;;;;;5108411;28;20036;-83
2023/02/05 02:55:55;;;;;;;18.63;8.05;;;3.70;99.90;;;;;;5108278;28;20530;-83
2023/02/05 02:58:34;;;;;;;15.52;7.90;;;3.50;99.90;;;;;;5124662;28;20407;-83
2023/02/05 03:01:04;;;;;;;14.65;8.52;;;3.40;99.90;;;;;;5107836;28;20047;-81
2023/02/05 03:03:35;;;;;;;17.08;8.18;;;3.40;99.90;;;;;;5107752;28;20067;-82
2023/02/05 03:06:05;;;;;;;16.77;8.40;;;3.40;99.90;;;;;;5124754;28;20079;-83
2023/02/05 03:08:56;;;;;;;16.42;8.68;;;3.40;99.90;;;;;;5124618;28;20480;-83
2023/02/05 03:11:25;;;;;;;13.65;8.57;;;3.40;99.90;;;;;;5125076;28;20537;-83
2023/02/05 03:13:53;;;;;;;13.13;7.88;;;3.40;99.90;;;;;;5124596;28;20039;-84
2023/02/05 03:16:20;;;;;;;15.48;8.60;;;3.50;99.90;;;;;;5124800;28;20028;-83
2023/02/05 03:18:48;;;;;;;17.25;8.93;;;3.40;99.90;;;;;;5109752;28;20048;-83
2023/02/05 03:21:23;;;;;;;21.35;9.23;;;3.50;99.90;;;;;;5111165;28;20097;-83
2023/02/05 03:23:50;;;;;;;17.50;8.43;;;3.40;99.90;;;;;;5127949;28;20055;-83
2023/02/05 03:26:24;;;;;;;17.25;8.55;;;3.50;99.90;;;;;;5127164;28;20040;-84
2023/02/05 03:28:51;;;;;;;14.98;8.38;;;3.50;99.90;;;;;;5105842;28;20399;-83
2023/02/05 03:31:28;;;;;;;14.70;7.88;;;3.50;99.90;;;;;;5110206;28;20032;-84
2023/02/05 03:34:13;;;;;;;18.73;8.55;;;3.50;99.90;;;;;;5111203;28;20052;-83
2023/02/05 03:37:01;;;;;;;22.05;9.10;;;3.50;99.90;;;;;;5128389;28;20055;-83
2023/02/05 03:39:37;;;;;;;16.50;8.65;;;3.50;99.90;;;;;;5128113;28;20044;-82
2023/02/05 03:42:09;;;;;;;16.08;7.90;;;3.50;99.90;;;;;;5128162;28;20117;-83
2023/02/05 03:45:09;;;;;;;18.38;9.25;;;3.50;99.90;;;;;;5127702;28;20055;-83
2023/02/05 03:47:45;;;;;;;18.55;9.48;;;3.50;99.90;;;;;;5110825;28;20040;-83
2023/02/05 03:50:25;;;;;;;19.77;9.70;;;3.60;99.90;;;;;;5127827;28;20059;-83
2023/02/05 03:53:26;;;;;;;17.25;9.32;;;3.60;99.90;;;;;;5127577;28;20043;-82
2023/02/05 03:56:09;;;;;;;23.65;9.75;;;3.60;99.90;;;;;;5128032;28;20099;-83
2023/02/05 03:58:56;;;;;;;16.25;9.57;;;3.60;99.90;;;;;;5127969;28;20043;-83
2023/02/05 04:01:24;;;;;;;21.02;10.50;;;3.60;99.90;;;;;;5110743;28;20040;-83
2023/02/05 04:03:50;;;;;;;16.40;8.48;;;3.60;99.90;;;;;;5127062;28;20114;-83
2023/02/05 04:06:17;;;;;;;22.27;9.90;;;3.60;99.90;;;;;;5111076;28;20080;-83
2023/02/05 04:08:44;;;;;;;19.20;8.77;;;3.80;99.90;;;;;;5110843;28;20051;-83
2023/02/05 04:11:11;;;;;;;24.45;10.10;;;3.60;99.90;;;;;;5127896;28;20127;-83
2023/02/05 04:13:38;;;;;;;16.30;10.23;;;3.70;99.90;;;;;;5127417;28;20043;-84
2023/02/05 04:16:04;;;;;;;26.67;10.75;;;3.60;99.90;;;;;;5110860;28;20046;-83
2023/02/05 04:18:31;;;;;;;20.38;9.80;;;3.60;99.90;;;;;;5110591;28;20043;-83
2023/02/05 04:20:59;;;;;;;21.85;9.75;;;3.60;99.90;;;;;;5093594;28;20083;-83
2023/02/05 04:23:26;;;;;;;21.17;10.30;;;3.70;99.90;;;;;;5127019;28;20061;-84
2023/02/05 04:25:55;;;;;;;17.77;10.52;;;3.60;99.90;;;;;;5093299;28;20036;-83
2023/02/05 04:28:22;;;;;;;21.42;9.35;;;3.70;99.90;;;;;;5110690;28;20089;-83
2023/02/05 04:30:49;;;;;;;24.00;10.60;;;3.70;99.90;;;;;;5126252;28;20043;-84
2023/02/05 04:33:16;;;;;;;19.92;10.15;;;3.70;99.90;;;;;;5110590;28;20047;-83
2023/02/05 04:35:42;;;;;;;22.30;10.65;;;3.70;99.90;;;;;;5110121;28;20036;-84
2023/02/05 04:38:09;;;;;;;23.98;10.63;;;3.70;99.90;;;;;;5111091;28;20039;-84
2023/02/05 04:40:36;;;;;;;19.48;10.15;;;4.10;99.90;;;;;;5093416;28;20039;-84
2023/02/05 04:43:02;;;;;;;20.52;10.90;;;3.70;99.90;;;;;;5127191;28;20040;-84
2023/02/05 04:45:29;;;;;;;21.10;10.68;;;3.80;99.90;;;;;;5110622;28;20404;-84
2023/02/05 04:47:58;;;;;;;24.45;11.13;;;3.70;99.90;;;;;;5110140;28;20044;-83
2023/02/05 04:50:25;;;;;;;22.77;10.40;;;3.80;99.90;;;;;;5127189;28;20039;-83
2023/02/05 04:52:52;;;;;;;21.05;11.05;;;3.80;99.90;;;;;;5126857;28;20036;-83
2023/02/05 04:55:18;;;;;;;28.60;11.18;;;3.80;99.90;;;;;;5110055;28;20089;-83
2023/02/05 04:57:45;;;;;;;21.00;10.52;;;3.80;99.90;;;;;;5109807;28;20504;-83
2023/02/05 05:00:12;;;;;;;26.65;10.35;;;3.80;99.90;;;;;;5110054;28;20043;-83
2023/02/05 05:02:39;;;;;;;28.05;11.43;;;3.80;99.90;;;;;;5109409;28;20040;-83
2023/02/05 05:05:06;;;;;;;26.38;12.10;;;3.90;99.90;;;;;;5109916;28;20038;-83
2023/02/05 05:07:32;;;;;;;23.92;10.82;;;3.80;99.90;;;;;;5109700;28;20040;-84
2023/02/05 05:09:59;;;;;;;20.48;10.27;;;3.80;99.90;;;;;;5126303;28;20119;-84
2023/02/05 05:12:26;;;;;;;26.58;11.07;;;3.90;99.90;;;;;;5109551;28;20040;-84
2023/02/05 05:14:52;;;;;;;26.48;11.50;;;3.90;99.90;;;;;;5109139;28;20044;-84
2023/02/05 05:17:19;;;;;;;29.05;10.70;;;4.00;99.90;;;;;;5109599;28;20132;-83
2023/02/05 05:19:46;;;;;;;27.08;11.38;;;3.90;99.90;;;;;;5109327;28;20048;-83
2023/02/05 05:22:12;;;;;;;24.55;11.90;;;3.90;99.90;;;;;;5126513;28;20039;-83
2023/02/05 05:24:39;;;;;;;26.42;10.98;;;4.30;99.90;;;;;;5109089;28;20036;-83
2023/02/05 05:27:06;;;;;;;27.23;11.75;;;4.00;99.90;;;;;;5125649;28;20495;-83
2023/02/05 05:29:32;;;;;;;29.02;12.73;;;4.30;99.90;;;;;;5109255;28;20040;-84
2023/02/05 05:31:59;;;;;;;37.25;12.95;;;4.00;99.90;;;;;;5126080;28;20430;-84
2023/02/05 05:34:25;;;;;;;33.50;12.25;;;4.00;99.90;;;;;;5109335;28;20594;-83
2023/02/05 05:36:52;;;;;;;30.27;13.00;;;4.30;99.90;;;;;;5108779;28;20561;-84
2023/02/05 05:44:53;;;;;;;33.28;11.95;;;4.10;99.90;;;;;;5142780;28;20040;-83
2023/02/05 05:47:20;;;;;;;30.88;12.80;;;4.10;99.90;;;;;;5109486;28;20035;-84
2023/02/05 05:49:47;;;;;;;26.33;12.20;;;4.10;99.90;;;;;;5108635;28;20036;-83
2023/02/05 05:52:14;;;;;;;26.90;12.05;;;4.10;99.90;;;;;;5109484;28;20040;-84
2023/02/05 05:54:40;;;;;;;31.98;12.43;;;4.30;99.90;;;;;;5109040;28;20047;-82
2023/02/05 05:57:08;;;;;;;25.15;11.25;;;4.10;99.90;;;;;;5108668;28;20385;-84
2023/02/05 05:59:34;;;;;;;37.78;12.98;;;4.50;99.90;;;;;;5125701;28;20721;-83
2023/02/05 06:02:01;;;;;;;29.60;13.15;;;4.10;99.90;;;;;;5125560;28;20123;-83
2023/02/05 06:04:29;;;;;;;38.28;13.20;;;4.20;99.90;;;;;;5125613;28;20036;-84
2023/02/05 06:06:56;;;;;;;39.95;13.48;;;4.20;99.90;;;;;;5108760;28;20079;-83
2023/02/05 06:09:22;;;;;;;37.70;12.93;;;4.20;99.90;;;;;;5108699;28;20101;-83
2023/02/05 06:11:50;;;;;;;33.83;13.55;;;4.20;99.90;;;;;;5125458;28;20028;-84
2023/02/05 06:14:16;;;;;;;34.72;13.30;;;4.30;99.90;;;;;;5108867;28;20047;-83
2023/02/05 06:16:43;;;;;;;40.47;14.10;;;4.40;99.90;;;;;;5108685;28;20480;-84
2023/02/05 06:19:10;;;;;;;29.67;11.90;;;4.40;99.90;;;;;;5125607;28;20079;-83
2023/02/05 06:21:36;;;;;;;28.98;11.43;;;4.30;99.90;;;;;;5108798;28;20079;-83
2023/02/05 06:24:03;;;;;;;29.02;10.50;;;4.40;99.90;;;;;;5108527;28;20051;-84
2023/02/05 06:26:30;;;;;;;30.55;9.98;;;4.50;99.90;;;;;;5108915;28;20047;-84
2023/02/05 06:29:01;;;;;;;27.88;8.48;;;4.70;99.90;;;;;;5091735;28;20126;-83
2023/02/05 06:31:30;;;;;;;22.40;7.40;;;4.80;99.90;;;;;;5125560;28;20503;-84
2023/02/05 06:33:56;;;;;;;18.50;4.97;;;5.00;99.90;;;;;;5125654;28;20067;-84
2023/02/05 06:36:23;;;;;;;17.13;3.80;;;5.00;99.90;;;;;;5125642;28;20044;-84
2023/02/05 06:38:50;;;;;;;15.30;2.45;;;5.10;99.90;;;;;;5125580;28;20047;-83
2023/02/05 06:41:17;;;;;;;6.05;1.80;;;5.00;99.90;;;;;;5125776;28;20066;-84
2023/02/05 06:43:43;;;;;;;20.15;2.33;;;5.10;99.90;;;;;;5108443;28;20047;-84
2023/02/05 06:46:10;;;;;;;17.25;1.95;;;5.10;99.90;;;;;;5108852;28;20047;-83
2023/02/05 06:48:37;;;;;;;17.88;1.80;;;5.10;99.90;;;;;;5125738;28;20128;-83
2023/02/05 06:51:04;;;;;;;18.45;2.03;;;5.10;99.90;;;;;;5125151;28;20032;-84
2023/02/05 06:53:30;;;;;;;20.30;1.35;;;5.10;99.90;;;;;;5094207;28;20040;-83
2023/02/05 06:55:57;;;;;;;14.10;1.70;;;5.10;99.90;;;;;;5112311;28;20051;-84
2023/02/05 06:58:24;;;;;;;15.00;1.90;;;5.10;99.90;;;;;;5112364;28;20071;-84
2023/02/05 07:00:51;;;;;;;10.27;1.35;;;5.10;99.90;;;;;;5111610;28;20074;-84
2023/02/05 07:03:17;;;;;;;13.38;1.75;;;5.10;99.90;;;;;;5129036;28;20040;-83
2023/02/05 07:05:44;;;;;;;5.60;1.10;;;5.10;99.90;;;;;;5112194;28;20040;-83
2023/02/05 07:08:11;;;;;;;13.13;1.27;;;5.10;99.90;;;;;;5128726;28;20036;-83
2023/02/05 07:10:38;;;;;;;4.72;0.80;;;5.10;99.90;;;;;;5111615;28;20040;-83
2023/02/05 07:13:07;;;;;;;5.68;0.77;;;5.10;99.90;;;;;;5111652;28;20496;-83
2023/02/05 07:15:36;;;;;;;6.20;0.90;;;5.10;99.90;;;;;;5111575;28;20518;-84
2023/02/05 07:18:03;;;;;;;6.55;0.98;;;5.10;99.90;;;;;;5128625;28;20109;-83
2023/02/05 07:20:30;;;;;;;5.45;1.00;;;5.20;99.90;;;;;;5111397;28;20091;-83
2023/02/05 07:22:57;;;;;;;6.97;0.65;;;5.20;99.90;;;;;;5128400;28;20503;-83
2023/02/05 07:25:24;;;;;;;2.75;0.75;;;5.20;99.90;;;;;;5094963;28;20032;-84
2023/02/05 07:27:50;;;;;;;2.92;1.00;;;5.20;99.90;;;;;;5094674;28;20086;-83
2023/02/05 07:30:17;;;;;;;9.70;0.98;;;5.20;99.90;;;;;;5094260;28;20044;-84
2023/02/05 07:32:44;;;;;;;6.50;0.70;;;5.20;99.90;;;;;;5108624;28;20377;-82
2023/02/05 07:35:11;;;;;;;4.97;0.73;;;5.20;99.90;;;;;;5137322;28;20066;-83
2023/02/05 07:37:38;;;;;;;7.28;0.95;;;5.20;99.90;;;;;;5103620;28;20040;-84
2023/02/05 07:40:05;;;;;;;11.70;1.10;;;5.20;99.90;;;;;;5107625;28;20060;-83
2023/02/05 07:42:32;;;;;;;6.72;1.20;;;5.20;99.90;;;;;;5120764;28;20044;-84
2023/02/05 07:44:58;;;;;;;6.22;1.02;;;5.20;99.90;;;;;;5093438;28;20040;-83
2023/02/05 07:47:25;;;;;;;9.23;1.73;;;5.30;99.90;;;;;;5113720;28;20040;-87
2023/02/05 07:49:52;;;;;;;8.95;0.98;;;5.30;99.90;;;;;;5108669;28;20040;-84
2023/02/05 07:52:19;;;;;;;13.23;1.20;;;5.30;99.90;;;;;;5104219;28;20032;-84
2023/02/05 07:54:45;;;;;;;4.03;0.95;;;5.30;99.90;;;;;;5108099;28;20194;-83
2023/02/05 07:57:12;;;;;;;10.85;1.00;;;5.40;99.90;;;;;;5092443;28;20044;-85
2023/02/05 07:59:39;;;;;;;13.27;1.73;;;5.50;99.90;;;;;;5115947;28;20044;-84
2023/02/05 08:02:06;;;;;;;7.75;1.42;;;5.50;99.90;;;;;;5103490;28;20124;-84
2023/02/05 08:04:32;;;;;;;8.52;1.40;;;5.60;99.90;;;;;;5111898;28;20122;-86
2023/02/05 08:06:59;;;;;;;3.42;0.65;;;5.60;99.90;;;;;;5100024;28;20072;-83
2023/02/05 08:09:26;;;;;;;5.05;0.85;;;5.70;99.90;;;;;;5072984;28;20388;-84
2023/02/05 08:11:53;;;;;;;16.30;1.50;;;5.80;99.90;;;;;;5121379;28;20040;-85
2023/02/05 08:14:19;;;;;;;15.82;1.58;;;5.70;99.90;;;;;;5101887;28;20032;-84
2023/02/05 08:16:46;;;;;;;14.38;1.90;;;5.80;99.90;;;;;;5103132;28;20048;-84
2023/02/05 08:19:15;;;;;;;9.13;1.20;;;5.80;99.90;;;;;;5118768;28;20099;-85
2023/02/05 08:21:44;;;;;;;12.98;1.70;;;5.80;99.90;;;;;;5103416;28;20088;-84
2023/02/05 08:24:11;;;;;;;9.85;1.55;;;5.90;99.90;;;;;;5101665;28;20427;-85
2023/02/05 08:26:39;;;;;;;6.88;1.17;;;5.90;99.90;;;;;;5127616;28;20044;-85
2023/02/05 08:29:07;;;;;;;10.90;1.52;;;5.90;99.90;;;;;;5124753;28;20045;-86
2023/02/05 08:31:34;;;;;;;6.88;1.20;;;5.90;99.90;;;;;;5109896;28;20067;-85
2023/02/05 08:34:02;;;;;;;16.25;2.20;;;5.80;99.90;;;;;;5118711;28;20118;-81
2023/02/05 08:36:29;;;;;;;5.13;1.67;;;5.90;99.90;;;;;;5115531;28;20041;-83
2023/02/05 08:38:56;;;;;;;7.10;1.35;;;5.90;99.90;;;;;;5101988;28;20040;-85
2023/02/05 08:41:22;;;;;;;11.77;1.27;;;5.90;99.90;;;;;;5110923;28;20130;-84
2023/02/05 08:43:50;;;;;;;4.85;1.05;;;6.00;99.90;;;;;;5120409;28;20058;-85
2023/02/05 08:46:19;;;;;;;7.78;1.10;;;6.00;99.90;;;;;;5110267;28;20400;-85
2023/02/05 08:48:47;;;;;;;11.55;1.33;;;6.00;99.90;;;;;;5123545;28;20036;-84
2023/02/05 08:51:14;;;;;;;6.43;1.10;;;6.00;99.90;;;;;;5108757;28;20118;-83
2023/02/05 08:53:42;;;;;;;7.25;1.08;;;6.10;99.90;;;;;;5118223;28;20071;-84
2023/02/05 08:56:09;;;;;;;9.88;1.10;;;6.00;99.90;;;;;;5116347;28;20040;-84
2023/02/05 08:58:37;;;;;;;2.63;1.00;;;6.00;99.90;;;;;;5123584;28;20043;-84
2023/02/05 09:01:13;;;;;;;2.80;0.88;;;6.10;99.90;;;;;;5136370;28;20044;-84
2023/02/05 09:03:40;;;;;;;7.80;1.45;;;6.00;99.90;;;;;;5098771;28;20048;-83
2023/02/05 09:06:10;;;;;;;6.22;0.93;;;6.10;99.90;;;;;;5102173;28;20053;-84
2023/02/05 09:08:38;;;;;;;1.65;0.60;;;6.00;99.90;;;;;;5130673;28;20454;-85
2023/02/05 09:11:06;;;;;;;1.58;0.52;;;6.00;99.90;;;;;;5113920;28;20068;-85
2023/02/05 09:13:33;;;;;;;3.17;0.63;;;6.10;99.90;;;;;;5089325;28;20079;-86
2023/02/05 09:16:00;;;;;;;1.58;0.73;;;6.00;99.90;;;;;;5093116;28;20040;-84
2023/02/05 09:18:26;;;;;;;10.52;0.85;;;6.00;99.90;;;;;;5106700;28;20044;-85
2023/02/05 09:20:53;;;;;;;2.88;0.80;;;6.10;99.90;;;;;;5126432;28;20472;-86
2023/02/05 09:23:20;;;;;;;3.00;1.05;;;6.10;99.90;;;;;;5109315;28;20040;-85
2023/02/05 09:25:47;;;;;;;3.30;1.30;;;6.00;99.90;;;;;;5110023;28;20047;-85
2023/02/05 09:28:14;;;;;;;9.40;1.20;;;6.10;99.90;;;;;;5109348;28;20177;-85
2023/02/05 09:30:43;;;;;;;4.45;1.00;;;6.10;99.90;;;;;;5109702;28;20132;-86
2023/02/05 09:33:11;;;;;;;7.90;0.98;;;6.10;99.90;;;;;;5109384;28;20416;-85
2023/02/05 09:35:38;;;;;;;11.80;1.13;;;6.10;99.90;;;;;;5110048;28;20044;-86
2023/02/05 09:38:04;;;;;;;7.38;1.48;;;6.10;99.90;;;;;;5109482;28;20128;-83
2023/02/05 09:40:49;;;;;;;7.63;1.13;;;6.10;99.90;;;;;;5109634;28;20403;-86
2023/02/05 09:43:22;;;;;;;3.85;0.60;;;6.20;99.90;;;;;;5125670;28;20040;-86
2023/02/05 09:46:02;;;;;;;6.32;0.88;;;6.10;99.90;;;;;;5126091;28;20042;-86
2023/02/05 09:48:37;;;;;;;8.57;1.15;;;6.20;99.90;;;;;;5109479;28;20044;-86
2023/02/05 09:51:08;;;;;;;2.45;0.52;;;6.20;99.90;;;;;;5126805;28;20040;-86
2023/02/05 09:53:43;;;;;;;7.80;0.77;;;6.20;99.90;;;;;;5125744;28;20043;-85
2023/02/05 09:56:13;;;;;;;3.60;0.70;;;6.20;99.90;;;;;;5126255;28;20050;-86
2023/02/05 09:58:43;;;;;;;4.20;0.80;;;6.20;99.90;;;;;;5126043;28;20044;-86
2023/02/05 10:01:32;;;;;;;7.80;1.20;;;6.30;99.90;;;;;;5108781;28;20773;-86
2023/02/05 10:04:08;;;;;;;4.47;0.90;;;6.30;99.90;;;;;;5125784;28;20127;-86
2023/02/05 10:06:49;;;;;;;5.20;1.13;;;6.30;99.90;;;;;;5102408;28;20069;-86
2023/02/05 10:09:41;;;;;;;5.60;1.00;;;6.40;99.90;;;;;;5117680;28;20051;-85
2023/02/05 10:12:44;;;;;;;4.57;0.65;;;6.40;99.90;;;;;;5111151;28;20481;-86
2023/02/05 10:15:36;;;;;;;7.40;1.25;;;6.50;99.90;;;;;;5070673;28;20091;-86
2023/02/05 10:18:08;;;;;;;5.60;1.65;;;6.50;99.90;;;;;;5122665;28;20053;-86
2023/02/05 10:20:35;;;;;;;7.60;1.17;;;6.50;99.90;;;;;;5105109;28;20148;-85
2023/02/05 10:23:37;;;;;;;9.07;1.10;;;6.50;99.90;;;;;;5105213;28;20471;-85
2023/02/05 10:26:10;;;;;;;4.93;0.80;;;6.60;99.90;;;;;;5105824;28;20126;-86
2023/02/05 10:29:07;;;;;;;11.25;1.05;;;6.70;99.90;;;;;;5111306;28;20035;-86
2023/02/05 10:31:37;;;;;;;13.70;1.40;;;6.70;99.90;;;;;;5146711;28;20035;-86
2023/02/05 10:34:37;;;;;;;7.05;1.48;;;6.70;99.90;;;;;;5130381;28;20047;-86
2023/02/05 10:37:10;;;;;;;9.35;1.15;;;6.80;99.90;;;;;;5111723;28;20040;-82
2023/02/05 10:39:37;;;;;;;7.45;0.93;;;6.80;99.90;;;;;;5128839;28;20094;-86
2023/02/05 10:42:26;;;;;;;5.75;1.27;;;6.80;99.90;;;;;;5111161;28;20078;-87
2023/02/05 10:45:05;;;;;;;9.40;1.27;;;6.80;99.90;;;;;;5078917;28;20131;-86
2023/02/05 10:47:59;;;;;;;20.77;1.40;;;6.80;99.90;;;;;;5113950;28;20043;-85
2023/02/05 10:50:41;;;;;;;9.13;1.23;;;6.90;99.90;;;;;;5130629;28;20082;-86
2023/02/05 10:53:08;;;;;;;6.07;1.15;;;6.90;99.90;;;;;;5112969;28;20463;-87
2023/02/05 10:55:36;;;;;;;11.43;1.55;;;6.90;99.90;;;;;;5095655;28;20071;-86
2023/02/05 10:58:21;;;;;;;10.45;1.70;;;6.90;99.90;;;;;;5096457;28;20047;-86
2023/02/05 11:00:48;;;;;;;9.32;1.20;;;7.00;99.90;;;;;;5112289;28;20143;-87
2023/02/05 11:03:18;;;;;;;14.63;2.15;;;7.00;99.90;;;;;;5113103;28;20131;-87
2023/02/05 11:05:46;;;;;;;9.52;1.40;;;7.00;99.90;;;;;;5131455;28;20565;-87
2023/02/05 11:08:34;;;;;;;10.95;1.58;;;7.10;99.90;;;;;;5113278;28;20503;-87
2023/02/05 11:11:02;;;;;;;16.58;2.03;;;7.10;99.90;;;;;;5112505;28;20039;-86
2023/02/05 11:13:29;;;;;;;19.60;2.17;;;7.10;99.90;;;;;;5112647;28;20040;-88
2023/02/05 11:15:59;;;;;;;13.15;2.22;;;7.10;99.90;;;;;;5125408;28;20044;-86
2023/02/05 11:18:48;;;;;;;12.00;2.00;;;7.10;99.90;;;;;;5120097;28;20101;-87
2023/02/05 11:21:14;;;;;;;10.90;1.70;;;7.10;99.90;;;;;;5125317;28;20139;-87
2023/02/05 11:23:54;;;;;;;15.77;1.90;;;7.10;99.90;;;;;;5076180;28;20136;-87
2023/02/05 11:26:23;;;;;;;10.00;1.48;;;7.10;99.90;;;;;;5109101;28;20051;-86
2023/02/05 11:28:50;;;;;;;14.50;1.88;;;7.10;99.90;;;;;;5092795;28;20036;-85
2023/02/05 11:31:30;;;;;;;14.60;2.17;;;7.10;99.90;;;;;;5113987;28;20036;-87
2023/02/05 11:34:06;;;;;;;15.98;2.35;;;7.10;99.90;;;;;;5112942;28;20050;-88
2023/02/05 11:36:37;;;;;;;16.60;2.05;;;7.20;99.90;;;;;;5129925;28;20063;-88
2023/02/05 11:39:19;;;;;;;11.27;2.28;;;7.20;99.90;;;;;;5129043;28;20046;-86
2023/02/05 11:41:47;;;;;;;10.73;1.85;;;7.10;99.90;;;;;;5112737;28;20043;-88
2023/02/05 11:44:24;;;;;;;10.73;2.28;;;7.20;99.90;;;;;;5093295;28;20535;-88
2023/02/05 11:46:55;;;;;;;13.65;1.98;;;7.20;99.90;;;;;;5092048;28;20044;-87
2023/02/05 11:49:30;;;;;;;16.52;2.42;;;7.30;99.90;;;;;;5106963;28;20068;-85
2023/02/05 11:51:57;;;;;;;15.07;2.40;;;7.30;99.90;;;;;;5111410;28;20044;-88
2023/02/05 11:54:30;;;;;;;15.98;2.22;;;7.30;99.90;;;;;;5110957;28;20039;-87
2023/02/05 11:57:20;;;;;;;8.95;1.75;;;7.40;99.90;;;;;;5112231;28;20046;-88
2023/02/05 11:59:59;;;;;;;10.95;2.15;;;7.30;99.90;;;;;;5122849;28;20050;-87
2023/02/05 12:02:28;;;;;;;20.33;2.28;;;7.30;99.90;;;;;;5099228;28;20044;-88
2023/02/05 12:05:19;;;;;;;10.90;2.50;;;7.30;99.90;;;;;;5122868;28;20528;-88
2023/02/05 12:08:28;;;;;;;21.17;2.15;;;7.40;99.90;;;;;;5120931;28;20047;-85
2023/02/05 12:11:23;;;;;;;18.98;2.15;;;7.40;99.90;;;;;;5117903;28;20072;-84
2023/02/05 12:13:58;;;;;;;15.00;1.92;;;7.40;99.90;;;;;;5108746;28;20044;-87
2023/02/05 12:16:50;;;;;;;26.38;2.55;;;7.50;99.90;;;;;;5109004;28;20052;-87
2023/02/05 12:19:32;;;;;;;22.98;3.28;;;7.50;99.90;;;;;;5115077;28;20048;-86
2023/02/05 12:22:36;;;;;;;6.63;1.40;;;7.50;99.90;;;;;;5123556;28;20048;-86
2023/02/05 12:25:11;;;;;;;22.35;2.88;;;7.50;99.90;;;;;;5098436;28;20093;-84
2023/02/05 12:28:01;;;;;;;29.20;2.07;;;7.50;99.90;;;;;;5115905;28;20036;-84
2023/02/05 12:30:44;;;;;;;11.45;2.22;;;7.60;99.90;;;;;;5112792;28;20497;-86
2023/02/05 12:33:11;;;;;;;18.40;2.63;;;7.60;99.90;;;;;;5103606;28;20044;-86
2023/02/05 12:35:44;;;;;;;16.35;2.72;;;7.60;99.90;;;;;;5127064;28;20050;-87
2023/02/05 12:38:11;;;;;;;14.50;2.42;;;7.60;99.90;;;;;;5112409;28;20044;-87
2023/02/05 12:40:47;;;;;;;27.92;3.30;;;7.70;99.90;;;;;;5124877;28;20089;-87
2023/02/05 12:43:35;;;;;;;13.70;3.30;;;7.60;99.90;;;;;;5110041;28;20047;-87
2023/02/05 12:46:23;;;;;;;13.40;1.85;;;7.60;99.90;;;;;;5108159;28;20040;-87
2023/02/05 12:49:08;;;;;;;14.88;2.63;;;7.70;99.90;;;;;;5110888;28;20109;-87
2023/02/05 12:51:38;;;;;;;13.80;2.80;;;7.60;99.90;;;;;;5089489;28;20040;-87
2023/02/05 12:54:22;;;;;;;15.75;2.10;;;7.70;99.90;;;;;;5127991;28;20040;-87
2023/02/05 12:57:04;;;;;;;14.32;2.33;;;7.60;99.90;;;;;;5120368;28;20419;-87
2023/02/05 12:59:37;;;;;;;16.80;2.05;;;7.60;99.90;;;;;;5109445;28;20181;-87
2023/02/05 13:02:30;;;;;;;13.85;2.60;;;7.60;99.90;;;;;;5110647;28;20404;-87
2023/02/05 13:05:22;;;;;;;18.63;2.30;;;7.60;99.90;;;;;;5126071;28;20528;-87
2023/02/05 13:07:59;;;;;;;25.67;3.55;;;7.60;99.90;;;;;;5102552;28;20040;-86
2023/02/05 13:10:57;;;;;;;19.90;2.28;;;7.50;99.90;;;;;;5127074;28;20403;-86
2023/02/05 13:13:43;;;;;;;15.30;2.42;;;7.50;99.90;;;;;;5089777;28;20048;-84
2023/02/05 13:16:14;;;;;;;18.33;2.72;;;7.60;99.90;;;;;;5118151;28;20048;-85